Adana, Turkey

7:54 AM EEST on July 31, 2014 (GMT +0300)
Adana (LTAF) Elev 66 ft | 36.98 °N, 35.30 °E | Change Station

Current weather conditions updated 34 minutes ago

Partly Cloudy
Partly Cloudy
81 °F
Feels Like 86 °F
N
4
Wind Variable Wind from SSE

Today is forecast to be Warmer than yesterday.

Today
High -- | Low -- °F
--% Chance of Precip.
Yesterday
High -- | Low -- °F
Precip. -- in
5:42 AM 7:46 PM
Waxing Crescent, 16% visible
Pressure 29.71 in
Visibility 6.2 miles
Clouds Few 4000 ft
Heat Index 86 °F
Dew Point 75 °F
Humidity 84%
Rainfall 0.00 in
Snow Depth Not available.
UV 1 out of 12
Pollen Not available.
Air Quality Not available.
Flu Activity Not available.
METAR LTAF 310420Z 16003KT 9999 FEW040 27/24 Q1006 NOSIG RMK RWY23 20003KT 170V230

More Conditions Fewer Conditions

Pressure 29.71 in
Visibility 6.2 miles
Clouds Few 4000 ft
Heat Index 86 °F
Dew Point 75 °F
Humidity 84%
Rainfall 0.00 in
Snow Depth Not available.
UV 1 out of 12
Pollen Not available.
Air Quality Not available.
Flu Activity Not available.
METAR LTAF 310420Z 16003KT 9999 FEW040 27/24 Q1006 NOSIG RMK RWY23 20003KT 170V230

More Conditions Fewer Conditions

10-Day Weather Forecast

Almanac

Astronomy

Jul. 31, 2014 Rise Set
Actual Time 5:42 AM EEST 7:46 PM EEST
Civil Twilight 5:14 AM EEST 8:15 PM EEST
Nautical Twilight 4:38 AM EEST 8:50 PM EEST
Astronomical Twilight 4:00 AM EEST 9:28 PM EEST
Moon 9:43 AM EEST 9:57 PM EEST
Length of Visible Light 15h 01m
Length of Day
14h 03m
Tomorrow will be 1m 45s shorter.
Waxing Crescent, 16% of the Moon is Illuminated
Today
Waxing Crescent
Aug 3
First Quarter
Aug 10
Full
Aug 17
Last Quarter
Aug 25
New

Yesterday's Extremes

Country Highs Country Lows

Community

WunderPhotos

Upload Photos

1,739,242 photos uploaded!

Nearby

Snow Depth

Not available.

Earthquake Activity

City Distance Mag. Time & Date
No recent earthquake activity has been reported nearby.
Minimum magnitude displayed is 2.5.

Coastal Water Temperatures

Place Temperature
No Stations Reporting

Nearby Weather Stations

There are no personal weather stations in this area.